หน้าหลัก
METAR-TAF:

METAR-TAF

ท่าอากาศยาน :

ประเทศมอริเชียส, มอริเชียส

ละติจูด: 20-26S, ลองจิจูด: 057-40E, ความสูง: 55 ม.

การสังเกตสภาพอากาศปัจจุบัน

รายงานได้ทำขึ้นเมื่อ 1 ชั่วโมงและ 1 นาทีที่แล้ว ณ เวลา 08:00 UTC
ลม 10 นอตจากเหนือ/ตะวันออกเฉียงเหนือ
อุณหภูมิ 29°C
ความชื้น 79%
ความกดอากาศ 1011 hPa
ทัศนวิสัย 10 กม. หรือมากกว่า
มีเมฆกระจายเป็นบางส่วนที่ความสูง 1600 ฟุต
มีเมฆกระจายเป็นบางส่วนที่ความสูง 5000 ฟุต
การโปรยปรายในบริเวณใกล้เคียง,

METAR: FIMP 250800Z 03010KT 9999 VCSH SCT016 SCT050 29/25 Q1011

เวลา: 13:01 (09:01 UTC)

การพยากรณ์

รายงานได้ทำขึ้นเมื่อ 3 ชั่วโมงและ 56 นาทีที่แล้ว ณ เวลา 05:05 UTC
การพยากรณ์มีผลตั้งแต่วันที่ 25 ณ เวลา 06 UTC จนถึงวันที่ 26 ณ เวลา 12 UTC
ลม 8 นอตจากเหนือ/ตะวันออกเฉียงเหนือ
ทัศนวิสัย 10 กม. หรือมากกว่า
มีเมฆกระจายเป็นบางส่วนที่ความสูง 1600 ฟุต
ชั่วคราว
ตั้งแต่วันที่ 25 ณ เวลา 06 UTC จนถึงวันที่ 25 ณ เวลา 12 UTC
ทัศนวิสัย: 7000 ม.
มีเมฆน้อยที่ความสูง 800 ฟุต
มีเมฆเป็นส่วนมากเว้นเป็นระยะที่ความสูง 1400 ฟุต
ฝนโปรยปรายเล็กน้อย,

TAF: FIMP 250505Z 2506/2612 02008KT 9999 SCT016 TEMPO 2506/2512 7000 -SHRA FEW008 BKN014

สังเกตการณ์สภาพอากาศและพยากรณ์อากาศของสนามบินมากกว่า 4000 แห่ง (รายงาน METAR และ TAF).

สถานีที่ดูได้จะแสดงไว้ด้วยจุดสีเหลืองและสีแดงบนแผนที่.

เลื่อนเมาส์ไปเหนือจุดเพื่อดูชื่อสถานี.

แล้วคลิกเพื่อดูสังเกตการณ์และการพยากรณ์สภาพอากาศ.

ในการเปลี่ยนแผนที่: คลิกที่ปุ่มสีเขียวที่มีกากบาทสีดำเพื่อซูมเข้า; ที่ปุ่มสีเขียวที่มีขีดเพื่อซูมออก; หรือที่ลูกศรสีเขียวเพื่อไปยังแผนที่ที่อยู่ติดกัน.


METAR-TAF: